createdAt,value
2022-10-25T00:01:51.845Z,15.50
2022-10-25T00:04:18.846Z,15.50
2022-10-25T00:06:45.526Z,15.40
2022-10-25T00:09:12.271Z,15.40
2022-10-25T00:11:39.155Z,15.40
2022-10-25T00:14:07.148Z,15.40
2022-10-25T00:16:36.784Z,15.30
2022-10-25T00:19:04.868Z,15.30
2022-10-25T00:21:32.225Z,15.30
2022-10-25T00:23:58.997Z,15.30
2022-10-25T00:26:25.677Z,15.30
2022-10-25T00:28:54.945Z,15.30
2022-10-25T00:31:22.257Z,15.30
2022-10-25T00:33:49.011Z,15.30
2022-10-25T00:36:26.477Z,15.30
2022-10-25T00:38:55.878Z,15.20
2022-10-25T00:41:25.507Z,15.20
2022-10-25T00:43:55.223Z,15.20
2022-10-25T00:46:24.462Z,15.20
2022-10-25T00:49:05.990Z,15.20
2022-10-25T00:51:40.522Z,15.10
2022-10-25T00:54:09.371Z,15.10
2022-10-25T00:56:39.601Z,15.10
2022-10-25T00:59:10.723Z,15.10
2022-10-25T01:01:38.691Z,15.10
2022-10-25T01:04:09.806Z,15.10
2022-10-25T01:06:42.573Z,15.10
2022-10-25T01:09:11.778Z,15.00
2022-10-25T01:11:38.539Z,15.10
2022-10-25T01:14:08.871Z,15.10
2022-10-25T01:16:47.404Z,15.10
2022-10-25T01:19:51.441Z,15.10
2022-10-25T01:22:39.107Z,15.00
2022-10-25T01:25:30.177Z,15.00
2022-10-25T01:28:04.340Z,15.00
2022-10-25T01:31:01.798Z,15.00
2022-10-25T01:33:49.618Z,15.00
2022-10-25T01:36:32.306Z,15.00
2022-10-25T01:39:17.095Z,15.00
2022-10-25T01:42:00.723Z,15.00
2022-10-25T01:44:38.629Z,14.90
2022-10-25T01:47:17.570Z,14.90
2022-10-25T01:49:49.812Z,14.90
2022-10-25T01:52:22.522Z,14.90
2022-10-25T01:54:50.178Z,14.80
2022-10-25T01:57:34.474Z,14.80
2022-10-25T02:00:33.757Z,14.80
2022-10-25T02:03:26.741Z,14.80
2022-10-25T02:06:11.982Z,14.70
2022-10-25T02:09:06.779Z,14.70
2022-10-25T02:11:34.194Z,14.80
2022-10-25T02:14:21.807Z,14.80
2022-10-25T02:16:56.597Z,14.80
2022-10-25T02:19:32.871Z,14.80
2022-10-25T02:22:01.672Z,14.80
2022-10-25T02:24:30.383Z,14.80
2022-10-25T02:26:59.354Z,14.90
2022-10-25T02:29:29.483Z,14.90
2022-10-25T02:31:56.283Z,14.90
2022-10-25T02:34:23.076Z,14.90
2022-10-25T02:36:50.423Z,14.80
2022-10-25T02:39:18.603Z,14.80
2022-10-25T02:41:45.381Z,14.80
2022-10-25T02:44:12.116Z,14.70
2022-10-25T02:46:38.991Z,14.70
2022-10-25T02:49:06.414Z,14.70
2022-10-25T02:51:33.181Z,14.60
2022-10-25T02:53:59.918Z,14.60
2022-10-25T02:56:26.959Z,14.60
2022-10-25T02:58:57.308Z,14.60
2022-10-25T03:01:25.472Z,14.60
2022-10-25T03:03:52.901Z,14.60
2022-10-25T03:06:19.948Z,14.70
2022-10-25T03:08:46.802Z,14.70
2022-10-25T03:11:15.427Z,14.80
2022-10-25T03:13:42.626Z,14.80
2022-10-25T03:16:09.457Z,14.90
2022-10-25T03:18:36.381Z,14.90
2022-10-25T03:21:04.106Z,14.90
2022-10-25T03:23:31.148Z,14.90
2022-10-25T03:25:59.334Z,14.90
2022-10-25T03:28:27.635Z,14.90
2022-10-25T03:30:55.145Z,15.00
2022-10-25T03:33:22.166Z,15.00
2022-10-25T03:35:52.755Z,15.00
2022-10-25T03:38:20.151Z,15.00
2022-10-25T03:40:47.135Z,15.00
2022-10-25T03:43:15.064Z,14.90
2022-10-25T03:45:41.924Z,14.90
2022-10-25T03:48:09.006Z,14.90
2022-10-25T03:50:36.411Z,14.90
2022-10-25T03:53:04.542Z,14.90
2022-10-25T03:55:32.310Z,14.90
2022-10-25T03:57:59.126Z,14.90
2022-10-25T04:00:26.943Z,14.90
2022-10-25T04:02:59.425Z,14.90
2022-10-25T04:05:29.374Z,14.90
2022-10-25T04:07:56.250Z,14.90
2022-10-25T04:10:25.238Z,14.90
2022-10-25T04:12:54.185Z,14.90
2022-10-25T04:15:22.623Z,14.90
2022-10-25T04:17:53.677Z,14.80
2022-10-25T04:20:21.226Z,14.80
2022-10-25T04:22:58.014Z,14.70
2022-10-25T04:25:26.565Z,14.60
2022-10-25T04:27:53.410Z,14.60
2022-10-25T04:30:20.210Z,14.50
2022-10-25T04:32:47.181Z,14.60
2022-10-25T04:35:14.303Z,14.50
2022-10-25T04:37:41.161Z,14.40
2022-10-25T04:40:08.650Z,14.40
2022-10-25T04:42:35.738Z,14.40
2022-10-25T04:45:02.599Z,14.40
2022-10-25T04:47:32.826Z,14.40
2022-10-25T04:49:59.657Z,14.40
2022-10-25T04:52:28.335Z,14.40
2022-10-25T04:54:55.112Z,14.40
2022-10-25T04:57:22.221Z,14.40
2022-10-25T04:59:48.941Z,14.30
2022-10-25T05:02:15.733Z,14.30
2022-10-25T05:04:42.561Z,14.40
2022-10-25T05:07:09.310Z,14.40
2022-10-25T05:09:36.026Z,14.40
2022-10-25T05:12:02.715Z,14.40
2022-10-25T05:14:29.406Z,14.40
2022-10-25T05:16:56.158Z,14.40
2022-10-25T05:19:22.903Z,14.40
2022-10-25T05:21:49.574Z,14.40
2022-10-25T05:24:16.227Z,14.40
2022-10-25T05:26:42.983Z,14.40
2022-10-25T05:29:12.156Z,14.40
2022-10-25T05:31:40.927Z,14.40
2022-10-25T05:34:08.055Z,14.40
2022-10-25T05:36:34.739Z,14.40
2022-10-25T05:39:01.726Z,14.50
2022-10-25T05:41:32.067Z,14.40
2022-10-25T05:44:01.477Z,14.40
2022-10-25T05:46:28.185Z,14.40
2022-10-25T05:48:54.927Z,14.30
2022-10-25T05:51:34.783Z,14.30
2022-10-25T05:54:06.786Z,14.40
2022-10-25T05:56:34.555Z,14.30
2022-10-25T05:59:08.755Z,14.30
2022-10-25T06:01:37.175Z,14.20
2022-10-25T06:04:04.161Z,14.30
2022-10-25T06:06:30.814Z,14.20
2022-10-25T06:08:59.049Z,14.20
2022-10-25T06:11:26.414Z,14.20
2022-10-25T06:13:53.550Z,14.20
2022-10-25T06:16:21.190Z,14.20
2022-10-25T06:18:48.182Z,14.20
2022-10-25T06:21:17.848Z,14.20
2022-10-25T06:23:45.579Z,14.20
2022-10-25T06:26:14.735Z,14.10
2022-10-25T06:28:42.044Z,14.10
2022-10-25T06:31:11.951Z,14.10
2022-10-25T06:33:39.591Z,14.00
2022-10-25T06:36:15.258Z,14.00
2022-10-25T06:38:42.398Z,14.00
2022-10-25T06:41:41.036Z,14.00
2022-10-25T06:44:08.033Z,14.10
2022-10-25T06:47:04.342Z,14.10
2022-10-25T06:49:24.756Z,14.10
2022-10-25T06:51:51.433Z,14.20
2022-10-25T06:54:18.217Z,14.20
2022-10-25T06:56:44.939Z,14.30
2022-10-25T06:59:11.787Z,14.30
2022-10-25T07:01:38.556Z,14.40
2022-10-25T07:04:05.386Z,14.30
2022-10-25T07:06:35.980Z,14.30
2022-10-25T07:09:04.895Z,14.30
2022-10-25T07:11:32.919Z,14.30
2022-10-25T07:14:00.390Z,14.40
2022-10-25T07:16:28.396Z,14.40
2022-10-25T07:18:59.849Z,14.50
2022-10-25T07:21:27.536Z,14.60
2022-10-25T07:23:54.277Z,14.60
2022-10-25T07:26:34.139Z,14.70
2022-10-25T07:29:02.000Z,14.90
2022-10-25T07:31:31.227Z,15.00
2022-10-25T07:33:59.862Z,15.00
2022-10-25T07:36:27.125Z,15.00
2022-10-25T07:38:53.963Z,15.10
2022-10-25T07:41:20.760Z,15.20
2022-10-25T07:43:47.973Z,15.10
2022-10-25T07:46:14.833Z,15.10
2022-10-25T07:48:41.508Z,15.00
2022-10-25T07:51:11.297Z,14.90
2022-10-25T07:53:38.583Z,14.90
2022-10-25T07:56:05.807Z,14.90
2022-10-25T07:58:32.621Z,14.80
2022-10-25T08:01:04.316Z,14.90
2022-10-25T08:03:31.986Z,14.90
2022-10-25T08:05:59.436Z,15.00
2022-10-25T08:08:26.558Z,15.20
2022-10-25T08:10:53.366Z,15.30
2022-10-25T08:13:20.432Z,15.40
2022-10-25T08:15:54.828Z,15.50
2022-10-25T08:18:22.870Z,15.60
2022-10-25T08:21:01.806Z,15.70
2022-10-25T08:23:31.243Z,15.70
2022-10-25T08:25:58.215Z,15.80
2022-10-25T08:28:24.983Z,16.00
2022-10-25T08:30:54.221Z,16.10
2022-10-25T08:33:20.971Z,16.10
2022-10-25T08:35:47.659Z,16.20
2022-10-25T08:38:14.347Z,16.20
2022-10-25T08:40:59.232Z,16.20
2022-10-25T08:43:47.134Z,16.30
2022-10-25T08:46:30.924Z,16.40
2022-10-25T08:49:21.113Z,16.40
2022-10-25T08:51:50.696Z,16.40
2022-10-25T08:54:35.097Z,16.50
2022-10-25T08:57:21.446Z,16.50
2022-10-25T08:59:51.673Z,16.50
2022-10-25T09:02:36.327Z,16.50
2022-10-25T09:05:03.636Z,16.60
2022-10-25T09:07:53.697Z,16.70
2022-10-25T09:10:27.347Z,16.80
2022-10-25T09:13:10.602Z,16.90
2022-10-25T09:16:12.331Z,17.00
2022-10-25T09:18:55.372Z,17.00
2022-10-25T09:21:34.585Z,17.10
2022-10-25T09:24:11.716Z,17.00
2022-10-25T09:26:40.656Z,17.00
2022-10-25T09:29:11.416Z,17.00
2022-10-25T09:31:43.957Z,17.10
2022-10-25T09:34:11.618Z,17.10
2022-10-25T09:36:48.962Z,17.10
2022-10-25T09:39:24.894Z,17.10
2022-10-25T09:41:55.994Z,17.20
2022-10-25T09:44:40.197Z,17.30
2022-10-25T09:47:14.702Z,17.20
2022-10-25T09:49:51.202Z,17.20
2022-10-25T09:52:50.980Z,17.10
2022-10-25T09:55:36.084Z,17.20
2022-10-25T09:58:03.401Z,17.20
2022-10-25T10:00:30.136Z,17.20
2022-10-25T10:02:57.012Z,17.10
2022-10-25T10:05:23.815Z,17.10
2022-10-25T10:07:51.627Z,16.90
2022-10-25T10:10:26.535Z,16.90
2022-10-25T10:13:05.764Z,17.00
2022-10-25T10:15:39.257Z,17.00
2022-10-25T10:18:29.194Z,17.00
2022-10-25T10:21:10.963Z,17.10
2022-10-25T10:24:02.938Z,17.10
2022-10-25T10:26:55.608Z,17.20
2022-10-25T10:29:24.302Z,17.30
2022-10-25T10:31:53.532Z,17.30
2022-10-25T10:34:23.123Z,17.30
2022-10-25T10:37:01.445Z,17.30
2022-10-25T10:39:28.183Z,17.30
2022-10-25T10:42:03.193Z,17.30
2022-10-25T10:44:34.553Z,17.40
2022-10-25T10:47:09.876Z,17.40
2022-10-25T10:49:40.003Z,17.50
2022-10-25T10:54:56.530Z,17.60
2022-10-25T10:57:32.861Z,17.60
2022-10-25T11:00:00.743Z,17.60
2022-10-25T11:02:38.047Z,17.60
2022-10-25T11:05:18.322Z,17.60
2022-10-25T11:07:45.326Z,17.70
2022-10-25T11:10:20.506Z,17.70
2022-10-25T11:13:05.446Z,17.70
2022-10-25T11:15:49.601Z,17.70
2022-10-25T11:18:19.094Z,17.80
2022-10-25T11:21:01.200Z,18.00
2022-10-25T11:23:50.788Z,18.10
2022-10-25T11:26:42.635Z,18.10
2022-10-25T11:29:27.877Z,18.10
2022-10-25T11:32:18.779Z,18.00
2022-10-25T11:35:25.725Z,17.90
2022-10-25T11:38:17.013Z,18.10
2022-10-25T11:41:15.651Z,18.10
2022-10-25T11:43:54.265Z,18.20
2022-10-25T11:46:23.644Z,18.20
2022-10-25T11:49:02.399Z,18.30
2022-10-25T11:51:49.352Z,18.30
2022-10-25T11:54:46.951Z,18.40
2022-10-25T11:57:44.459Z,18.40
2022-10-25T12:00:14.804Z,18.30
2022-10-25T12:02:44.386Z,18.20
2022-10-25T12:05:29.600Z,18.20
2022-10-25T12:08:24.108Z,18.30
2022-10-25T12:10:58.460Z,18.30
2022-10-25T12:13:30.879Z,18.30
2022-10-25T12:15:59.246Z,18.40
2022-10-25T12:18:35.461Z,18.30
2022-10-25T12:21:03.608Z,18.30
2022-10-25T12:23:43.930Z,18.40
2022-10-25T12:26:20.136Z,18.40
2022-10-25T12:28:49.183Z,18.40
2022-10-25T12:31:25.120Z,18.50
2022-10-25T12:34:10.450Z,18.50
2022-10-25T12:36:55.516Z,18.60
2022-10-25T12:39:28.039Z,18.60
2022-10-25T12:42:02.629Z,18.70
2022-10-25T12:44:51.308Z,18.60
2022-10-25T12:47:48.912Z,18.60
2022-10-25T12:50:30.769Z,18.90
2022-10-25T12:53:34.596Z,18.90
2022-10-25T12:56:13.350Z,19.10
2022-10-25T12:58:42.860Z,19.20
2022-10-25T13:01:28.384Z,19.10
2022-10-25T13:04:06.219Z,19.00
2022-10-25T13:06:43.197Z,19.10
2022-10-25T13:09:13.915Z,19.10
2022-10-25T13:11:48.923Z,19.20
2022-10-25T13:14:27.598Z,19.10
2022-10-25T13:17:17.074Z,19.00
2022-10-25T13:19:55.586Z,19.20
2022-10-25T13:22:35.651Z,19.70
2022-10-25T13:25:15.875Z,20.30
2022-10-25T13:28:16.459Z,20.50
2022-10-25T13:30:44.182Z,20.60
2022-10-25T13:33:27.755Z,20.70
2022-10-25T13:35:54.488Z,20.90
2022-10-25T13:38:39.429Z,21.10
2022-10-25T13:41:15.909Z,21.00
2022-10-25T13:44:05.209Z,20.50
2022-10-25T13:46:37.401Z,20.30
2022-10-25T13:49:38.603Z,20.20
2022-10-25T13:52:26.923Z,20.00
2022-10-25T13:54:56.181Z,19.90
2022-10-25T13:57:44.436Z,19.80
2022-10-25T14:00:40.146Z,19.70
2022-10-25T14:03:09.648Z,19.60
2022-10-25T14:05:54.914Z,19.50
2022-10-25T14:08:40.118Z,19.40
2022-10-25T14:11:28.023Z,19.40
2022-10-25T14:14:15.390Z,19.50
2022-10-25T14:17:08.839Z,19.50
2022-10-25T14:19:43.428Z,19.60
2022-10-25T14:22:29.047Z,19.50
2022-10-25T14:25:05.213Z,19.50
2022-10-25T14:27:36.541Z,19.40
2022-10-25T14:30:23.630Z,19.20
2022-10-25T14:32:55.992Z,19.20
2022-10-25T14:35:24.710Z,19.20
2022-10-25T14:37:51.963Z,19.10
2022-10-25T14:40:24.087Z,19.00
2022-10-25T14:42:53.636Z,19.00
2022-10-25T14:45:26.400Z,18.90
2022-10-25T14:47:53.219Z,18.70
2022-10-25T14:50:23.149Z,18.50
2022-10-25T14:52:51.377Z,18.50
2022-10-25T14:55:26.758Z,18.50
2022-10-25T14:57:53.662Z,18.50
2022-10-25T15:00:22.914Z,18.50
2022-10-25T15:02:56.362Z,18.40
2022-10-25T15:05:25.178Z,18.30
2022-10-25T15:07:57.280Z,18.30
2022-10-25T15:10:49.837Z,18.20
2022-10-25T15:13:43.304Z,18.20
2022-10-25T15:16:31.229Z,18.10
2022-10-25T15:19:09.873Z,18.00
2022-10-25T15:21:50.963Z,17.90
2022-10-25T15:24:24.197Z,17.80
2022-10-25T15:26:53.701Z,17.70
2022-10-25T15:29:53.885Z,17.60
2022-10-25T15:32:28.513Z,17.50
2022-10-25T15:34:59.010Z,17.40
2022-10-25T15:37:27.668Z,17.30
2022-10-25T15:39:56.291Z,17.30
2022-10-25T15:42:25.584Z,17.20
2022-10-25T15:44:52.520Z,17.20
2022-10-25T15:47:34.433Z,17.20
2022-10-25T15:50:03.722Z,17.10
2022-10-25T15:52:30.640Z,17.00
2022-10-25T15:54:57.377Z,17.00
2022-10-25T15:57:24.138Z,17.00
2022-10-25T15:59:51.027Z,16.90
2022-10-25T16:02:26.270Z,16.90
2022-10-25T16:04:53.653Z,16.90
2022-10-25T16:07:20.402Z,16.90
2022-10-25T16:09:47.346Z,16.90
2022-10-25T16:12:28.560Z,16.80
2022-10-25T16:14:55.450Z,16.80
2022-10-25T16:17:22.208Z,16.80
2022-10-25T16:19:48.918Z,16.70
2022-10-25T16:22:15.672Z,16.60
2022-10-25T16:24:42.354Z,16.50
2022-10-25T16:27:11.978Z,16.50
2022-10-25T16:29:38.879Z,16.40
2022-10-25T16:32:05.872Z,16.30
2022-10-25T16:34:32.676Z,16.30
2022-10-25T16:36:59.383Z,16.20
2022-10-25T16:39:26.157Z,16.10
2022-10-25T16:41:55.014Z,16.10
2022-10-25T16:44:21.798Z,16.00
2022-10-25T16:46:48.659Z,16.00
2022-10-25T16:49:15.669Z,16.00
2022-10-25T16:51:44.135Z,15.90
2022-10-25T16:54:12.227Z,15.90
2022-10-25T16:56:39.533Z,15.90
2022-10-25T16:59:06.268Z,15.80
2022-10-25T17:01:34.942Z,15.90
2022-10-25T17:04:03.920Z,15.90
2022-10-25T17:06:46.210Z,15.90
2022-10-25T17:09:13.059Z,15.90
2022-10-25T17:11:40.326Z,15.90
2022-10-25T17:14:09.556Z,15.90
2022-10-25T17:16:36.741Z,15.90
2022-10-25T17:19:04.200Z,15.90
2022-10-25T17:21:33.225Z,15.90
2022-10-25T17:24:00.365Z,15.80
2022-10-25T17:26:27.142Z,15.80
2022-10-25T17:28:53.838Z,15.80
2022-10-25T17:31:20.620Z,15.80
2022-10-25T17:33:47.450Z,15.80
2022-10-25T17:36:16.534Z,15.70
2022-10-25T17:38:43.668Z,15.70
2022-10-25T17:41:12.067Z,15.70
2022-10-25T17:43:40.198Z,15.70
2022-10-25T17:46:10.145Z,15.70
2022-10-25T17:48:36.915Z,15.70
2022-10-25T17:51:09.835Z,15.70
2022-10-25T17:53:36.729Z,15.70
2022-10-25T17:56:19.409Z,15.70
2022-10-25T17:58:47.430Z,15.70
2022-10-25T18:01:25.594Z,15.60
2022-10-25T18:03:54.233Z,15.60
2022-10-25T18:08:57.852Z,15.60
2022-10-25T18:11:26.393Z,15.60
2022-10-25T18:13:56.491Z,15.60
2022-10-25T18:16:26.477Z,15.60
2022-10-25T18:18:55.710Z,15.60
2022-10-25T18:21:22.473Z,15.50
2022-10-25T18:23:49.643Z,15.50
2022-10-25T18:26:17.630Z,15.50
2022-10-25T18:28:44.372Z,15.40
2022-10-25T18:31:13.422Z,15.40
2022-10-25T18:33:42.163Z,15.30
2022-10-25T18:36:15.909Z,15.30
2022-10-25T18:38:42.607Z,15.30
2022-10-25T18:41:13.767Z,15.30
2022-10-25T18:43:40.725Z,15.20
2022-10-25T18:46:07.617Z,15.20
2022-10-25T18:48:34.397Z,15.20
2022-10-25T18:51:10.234Z,15.10
2022-10-25T18:53:38.582Z,15.10
2022-10-25T18:56:19.552Z,15.00
2022-10-25T18:58:48.601Z,15.00
2022-10-25T19:01:18.085Z,15.00
2022-10-25T19:03:45.089Z,14.90
2022-10-25T19:06:11.891Z,14.90
2022-10-25T19:08:39.305Z,14.80
2022-10-25T19:11:11.242Z,14.80
2022-10-25T19:13:38.624Z,14.80
2022-10-25T19:16:06.422Z,14.80
2022-10-25T19:18:34.397Z,14.70
2022-10-25T19:21:09.602Z,14.70
2022-10-25T19:23:39.103Z,14.70
2022-10-25T19:26:08.272Z,14.70
2022-10-25T19:28:35.336Z,14.60
2022-10-25T19:31:14.045Z,14.70
2022-10-25T19:33:49.094Z,14.60
2022-10-25T19:36:16.647Z,14.60
2022-10-25T19:38:45.193Z,14.50
2022-10-25T19:41:16.661Z,14.50
2022-10-25T19:43:43.808Z,14.40
2022-10-25T19:46:11.686Z,14.40
2022-10-25T19:48:38.486Z,14.40
2022-10-25T19:51:08.011Z,14.30
2022-10-25T19:53:34.816Z,14.30
2022-10-25T19:56:08.333Z,14.20
2022-10-25T19:58:35.968Z,14.20
2022-10-25T20:01:08.821Z,14.20
2022-10-25T20:03:37.017Z,14.20
2022-10-25T20:06:07.338Z,14.10
2022-10-25T20:08:35.344Z,14.10
2022-10-25T20:11:03.100Z,14.10
2022-10-25T20:13:30.793Z,14.00
2022-10-25T20:15:57.976Z,14.00
2022-10-25T20:18:29.944Z,14.00
2022-10-25T20:20:59.953Z,13.90
2022-10-25T20:23:27.086Z,13.80
2022-10-25T20:25:54.064Z,13.80
2022-10-25T20:28:20.992Z,13.70
2022-10-25T20:30:48.134Z,13.70
2022-10-25T20:33:15.478Z,13.70
2022-10-25T20:35:44.613Z,13.70
2022-10-25T20:38:14.478Z,13.60
2022-10-25T20:40:44.004Z,13.60
2022-10-25T20:43:10.667Z,13.60
2022-10-25T20:45:37.573Z,13.60
2022-10-25T20:48:04.463Z,13.60
2022-10-25T20:50:31.444Z,13.50
2022-10-25T20:53:09.645Z,13.50
2022-10-25T20:55:36.690Z,13.50
2022-10-25T20:58:03.379Z,13.50
2022-10-25T21:00:30.292Z,13.50
2022-10-25T21:02:56.965Z,13.50
2022-10-25T21:05:23.680Z,13.50
2022-10-25T21:07:50.723Z,13.50
2022-10-25T21:10:17.693Z,13.50
2022-10-25T21:12:44.426Z,13.50
2022-10-25T21:15:12.242Z,13.50
2022-10-25T21:17:39.378Z,13.50
2022-10-25T21:20:06.782Z,13.40
2022-10-25T21:22:33.727Z,13.40
2022-10-25T21:25:00.464Z,13.40
2022-10-25T21:27:27.193Z,13.40
2022-10-25T21:29:53.897Z,13.40
2022-10-25T21:32:20.796Z,13.40
2022-10-25T21:34:47.538Z,13.40
2022-10-25T21:37:14.403Z,13.40
2022-10-25T21:39:42.237Z,13.40
2022-10-25T21:42:09.775Z,13.40
2022-10-25T21:44:36.447Z,13.40
2022-10-25T21:47:03.201Z,13.30
2022-10-25T21:49:29.927Z,13.30
2022-10-25T21:51:56.843Z,13.20
2022-10-25T21:54:24.712Z,13.20
2022-10-25T21:56:55.121Z,13.30
2022-10-25T21:59:22.771Z,13.20
2022-10-25T22:01:50.238Z,13.20
2022-10-25T22:04:17.236Z,13.20
2022-10-25T22:06:44.126Z,13.10
2022-10-25T22:09:10.889Z,13.10
2022-10-25T22:11:38.723Z,13.10
2022-10-25T22:14:08.227Z,13.10
2022-10-25T22:16:35.567Z,13.10
2022-10-25T22:19:08.403Z,13.10
2022-10-25T22:21:38.151Z,13.10
2022-10-25T22:24:08.332Z,13.10
2022-10-25T22:26:36.790Z,13.00
2022-10-25T22:29:04.806Z,13.10
2022-10-25T22:31:31.795Z,13.10
2022-10-25T22:34:04.097Z,13.10
2022-10-25T22:36:33.600Z,13.20
2022-10-25T22:39:01.199Z,13.20
2022-10-25T22:41:29.484Z,13.20
2022-10-25T22:43:57.317Z,13.20
2022-10-25T22:46:29.400Z,13.20
2022-10-25T22:48:57.957Z,13.20
2022-10-25T22:51:27.052Z,13.20
2022-10-25T22:53:53.924Z,13.20
2022-10-25T22:56:29.463Z,13.20
2022-10-25T22:58:59.741Z,13.20
2022-10-25T23:01:28.839Z,13.20
2022-10-25T23:03:56.866Z,13.20
2022-10-25T23:06:26.782Z,13.30
2022-10-25T23:08:54.674Z,13.30
2022-10-25T23:11:24.627Z,13.30
2022-10-25T23:13:52.103Z,13.30
2022-10-25T23:16:19.376Z,13.30
2022-10-25T23:18:46.378Z,13.40
2022-10-25T23:21:23.283Z,13.40
2022-10-25T23:23:51.681Z,13.40
2022-10-25T23:26:30.166Z,13.40
2022-10-25T23:28:57.473Z,13.40
2022-10-25T23:31:25.389Z,13.40
2022-10-25T23:33:54.033Z,13.40
2022-10-25T23:36:23.219Z,13.40
2022-10-25T23:38:51.326Z,13.50
2022-10-25T23:41:19.717Z,13.50
2022-10-25T23:43:46.670Z,13.50
2022-10-25T23:46:13.418Z,13.60
2022-10-25T23:48:40.277Z,13.50
2022-10-25T23:51:09.444Z,13.60
2022-10-25T23:53:36.669Z,13.60
2022-10-25T23:56:06.381Z,13.60
2022-10-25T23:58:33.560Z,13.60
